sensor_id;sensor_type;location;lat;lon;timestamp;pressure;altitude;pressure_sealevel;temperature;humidity
56420;BME280;42323;52.170;7.538;2023-08-07T00:02:02;100549.69;;;13.45;100.00
56420;BME280;42323;52.170;7.538;2023-08-07T00:04:29;100543.22;;;13.47;100.00
56420;BME280;42323;52.170;7.538;2023-08-07T00:06:56;100524.31;;;13.30;100.00
56420;BME280;42323;52.170;7.538;2023-08-07T00:09:22;100535.25;;;13.34;100.00
56420;BME280;42323;52.170;7.538;2023-08-07T00:11:49;100543.41;;;13.46;100.00
56420;BME280;42323;52.170;7.538;2023-08-07T00:14:15;100530.22;;;13.39;100.00
56420;BME280;42323;52.170;7.538;2023-08-07T00:16:42;100552.94;;;13.53;100.00
56420;BME280;42323;52.170;7.538;2023-08-07T00:19:10;100532.06;;;13.39;100.00
56420;BME280;42323;52.170;7.538;2023-08-07T00:21:37;100532.06;;;13.39;100.00
56420;BME280;42323;52.170;7.538;2023-08-07T00:24:04;100529.22;;;13.40;100.00
56420;BME280;42323;52.170;7.538;2023-08-07T00:26:31;100529.22;;;13.40;100.00
56420;BME280;42323;52.170;7.538;2023-08-07T00:28:58;100537.13;;;13.47;100.00
56420;BME280;42323;52.170;7.538;2023-08-07T00:31:25;100538.56;;;13.49;100.00
56420;BME280;42323;52.170;7.538;2023-08-07T00:33:52;100540.75;;;13.46;100.00
56420;BME280;42323;52.170;7.538;2023-08-07T00:36:20;100548.06;;;13.50;100.00
56420;BME280;42323;52.170;7.538;2023-08-07T00:38:47;100518.63;;;13.27;100.00
56420;BME280;42323;52.170;7.538;2023-08-07T00:41:13;100538.13;;;13.39;100.00
56420;BME280;42323;52.170;7.538;2023-08-07T00:43:40;100526.97;;;13.37;100.00
56420;BME280;42323;52.170;7.538;2023-08-07T00:46:07;100537.72;;;13.42;100.00
56420;BME280;42323;52.170;7.538;2023-08-07T00:48:34;100544.19;;;13.46;100.00
56420;BME280;42323;52.170;7.538;2023-08-07T00:51:01;100544.00;;;13.41;100.00
56420;BME280;42323;52.170;7.538;2023-08-07T00:53:28;100538.50;;;13.36;100.00
56420;BME280;42323;52.170;7.538;2023-08-07T00:55:55;100538.72;;;13.35;100.00
56420;BME280;42323;52.170;7.538;2023-08-07T00:58:22;100547.88;;;13.52;100.00
56420;BME280;42323;52.170;7.538;2023-08-07T01:00:48;100535.91;;;13.43;100.00
56420;BME280;42323;52.170;7.538;2023-08-07T01:03:15;100558.59;;;13.50;100.00
56420;BME280;42323;52.170;7.538;2023-08-07T01:05:41;100526.94;;;13.30;100.00
56420;BME280;42323;52.170;7.538;2023-08-07T01:08:11;100543.59;;;13.44;100.00
56420;BME280;42323;52.170;7.538;2023-08-07T01:11:07;100551.31;;;13.52;100.00
56420;BME280;42323;52.170;7.538;2023-08-07T01:16:21;100529.44;;;13.45;100.00
56420;BME280;42323;52.170;7.538;2023-08-07T01:18:53;100527.00;;;13.50;100.00
56420;BME280;42323;52.170;7.538;2023-08-07T01:21:21;100530.88;;;13.54;100.00
56420;BME280;42323;52.170;7.538;2023-08-07T01:23:48;100540.81;;;13.59;100.00
56420;BME280;42323;52.170;7.538;2023-08-07T01:26:16;100536.38;;;13.66;100.00
56420;BME280;42323;52.170;7.538;2023-08-07T01:28:52;100554.59;;;13.68;100.00
56420;BME280;42323;52.170;7.538;2023-08-07T01:31:22;100545.69;;;13.62;100.00
56420;BME280;42323;52.170;7.538;2023-08-07T01:34:05;100555.41;;;13.68;100.00
56420;BME280;42323;52.170;7.538;2023-08-07T01:36:33;100539.59;;;13.62;100.00
56420;BME280;42323;52.170;7.538;2023-08-07T01:39:01;100559.47;;;13.71;100.00
56420;BME280;42323;52.170;7.538;2023-08-07T01:41:28;100557.06;;;13.69;100.00
56420;BME280;42323;52.170;7.538;2023-08-07T01:43:55;100536.75;;;13.57;100.00
56420;BME280;42323;52.170;7.538;2023-08-07T01:46:22;100510.78;;;13.40;100.00
56420;BME280;42323;52.170;7.538;2023-08-07T01:48:48;100463.69;;;13.11;100.00
56420;BME280;42323;52.170;7.538;2023-08-07T01:51:15;100549.75;;;13.65;100.00
56420;BME280;42323;52.170;7.538;2023-08-07T01:53:41;100541.22;;;13.56;100.00
56420;BME280;42323;52.170;7.538;2023-08-07T01:56:08;100553.19;;;13.65;100.00
56420;BME280;42323;52.170;7.538;2023-08-07T01:58:34;100544.06;;;13.61;100.00
56420;BME280;42323;52.170;7.538;2023-08-07T02:01:01;100555.03;;;13.65;100.00
56420;BME280;42323;52.170;7.538;2023-08-07T02:03:27;100529.03;;;13.55;100.00
56420;BME280;42323;52.170;7.538;2023-08-07T02:05:54;100542.84;;;13.57;100.00
56420;BME280;42323;52.170;7.538;2023-08-07T02:08:21;100534.53;;;13.53;100.00
56420;BME280;42323;52.170;7.538;2023-08-07T02:10:47;100555.81;;;13.65;100.00
56420;BME280;42323;52.170;7.538;2023-08-07T02:13:14;100554.22;;;13.71;100.00
56420;BME280;42323;52.170;7.538;2023-08-07T02:15:40;100542.22;;;13.55;100.00
56420;BME280;42323;52.170;7.538;2023-08-07T02:18:07;100566.16;;;13.67;100.00
56420;BME280;42323;52.170;7.538;2023-08-07T02:20:33;100535.72;;;13.51;100.00
56420;BME280;42323;52.170;7.538;2023-08-07T02:23:00;100550.53;;;13.52;100.00
56420;BME280;42323;52.170;7.538;2023-08-07T02:25:27;100531.41;;;13.37;100.00
56420;BME280;42323;52.170;7.538;2023-08-07T02:27:53;100561.81;;;13.46;100.00
56420;BME280;42323;52.170;7.538;2023-08-07T02:30:20;100578.25;;;13.54;100.00
56420;BME280;42323;52.170;7.538;2023-08-07T02:32:46;100554.28;;;13.36;100.00
56420;BME280;42323;52.170;7.538;2023-08-07T02:35:13;100567.09;;;13.46;100.00
56420;BME280;42323;52.170;7.538;2023-08-07T02:37:39;100544.34;;;13.32;100.00
56420;BME280;42323;52.170;7.538;2023-08-07T02:40:06;100526.09;;;13.23;100.00
56420;BME280;42323;52.170;7.538;2023-08-07T02:42:33;100542.31;;;13.34;100.00
56420;BME280;42323;52.170;7.538;2023-08-07T02:45:00;100563.84;;;13.44;100.00
56420;BME280;42323;52.170;7.538;2023-08-07T02:47:26;100543.56;;;13.31;100.00
56420;BME280;42323;52.170;7.538;2023-08-07T02:49:53;100571.75;;;13.50;100.00
56420;BME280;42323;52.170;7.538;2023-08-07T02:52:19;100559.22;;;13.52;100.00
56420;BME280;42323;52.170;7.538;2023-08-07T02:54:46;100543.19;;;13.41;100.00
56420;BME280;42323;52.170;7.538;2023-08-07T02:57:12;100533.03;;;13.31;100.00
56420;BME280;42323;52.170;7.538;2023-08-07T02:59:39;100541.53;;;13.33;100.00
56420;BME280;42323;52.170;7.538;2023-08-07T03:02:05;100558.38;;;13.45;100.00
56420;BME280;42323;52.170;7.538;2023-08-07T03:04:32;100555.91;;;13.37;100.00
56420;BME280;42323;52.170;7.538;2023-08-07T03:06:59;100556.53;;;13.39;100.00
56420;BME280;42323;52.170;7.538;2023-08-07T03:09:26;100587.44;;;13.65;100.00
56420;BME280;42323;52.170;7.538;2023-08-07T03:11:52;100567.34;;;13.64;100.00
56420;BME280;42323;52.170;7.538;2023-08-07T03:14:19;100563.69;;;13.59;100.00
56420;BME280;42323;52.170;7.538;2023-08-07T03:16:48;100569.00;;;13.72;100.00
56420;BME280;42323;52.170;7.538;2023-08-07T03:19:14;100540.63;;;13.61;100.00
56420;BME280;42323;52.170;7.538;2023-08-07T03:21:41;100535.97;;;13.63;100.00
56420;BME280;42323;52.170;7.538;2023-08-07T03:24:07;100543.06;;;13.62;100.00
56420;BME280;42323;52.170;7.538;2023-08-07T03:26:38;100551.16;;;13.61;100.00
56420;BME280;42323;52.170;7.538;2023-08-07T03:29:04;100558.88;;;13.69;100.00
56420;BME280;42323;52.170;7.538;2023-08-07T03:31:31;100551.78;;;13.69;100.00
56420;BME280;42323;52.170;7.538;2023-08-07T03:33:57;100569.59;;;13.67;100.00
56420;BME280;42323;52.170;7.538;2023-08-07T03:36:24;100542.00;;;13.50;100.00
56420;BME280;42323;52.170;7.538;2023-08-07T03:38:51;100566.78;;;13.69;100.00
56420;BME280;42323;52.170;7.538;2023-08-07T03:41:17;100543.66;;;13.58;100.00
56420;BME280;42323;52.170;7.538;2023-08-07T03:43:44;100568.56;;;13.68;100.00
56420;BME280;42323;52.170;7.538;2023-08-07T03:46:11;100577.94;;;13.77;100.00
56420;BME280;42323;52.170;7.538;2023-08-07T03:48:38;100555.19;;;13.63;100.00
56420;BME280;42323;52.170;7.538;2023-08-07T03:51:05;100574.09;;;13.80;100.00
56420;BME280;42323;52.170;7.538;2023-08-07T03:53:32;100562.72;;;13.73;100.00
56420;BME280;42323;52.170;7.538;2023-08-07T03:55:59;100574.31;;;13.78;100.00
56420;BME280;42323;52.170;7.538;2023-08-07T03:58:25;100563.94;;;13.77;100.00
56420;BME280;42323;52.170;7.538;2023-08-07T04:00:52;100581.78;;;13.81;100.00
56420;BME280;42323;52.170;7.538;2023-08-07T04:03:20;100577.75;;;13.79;100.00
56420;BME280;42323;52.170;7.538;2023-08-07T04:05:47;100576.69;;;13.60;100.00
56420;BME280;42323;52.170;7.538;2023-08-07T04:08:13;100563.53;;;13.67;100.00
56420;BME280;42323;52.170;7.538;2023-08-07T04:10:40;100543.44;;;13.52;100.00
56420;BME280;42323;52.170;7.538;2023-08-07T04:13:06;100523.16;;;13.46;100.00
56420;BME280;42323;52.170;7.538;2023-08-07T04:15:33;100556.00;;;13.64;100.00
56420;BME280;42323;52.170;7.538;2023-08-07T04:18:00;100549.13;;;13.56;100.00
56420;BME280;42323;52.170;7.538;2023-08-07T04:20:27;100547.28;;;13.57;100.00
56420;BME280;42323;52.170;7.538;2023-08-07T04:22:54;100568.81;;;13.73;100.00
56420;BME280;42323;52.170;7.538;2023-08-07T04:25:20;100561.09;;;13.72;100.00
56420;BME280;42323;52.170;7.538;2023-08-07T04:27:47;100571.84;;;13.77;100.00
56420;BME280;42323;52.170;7.538;2023-08-07T04:30:13;100541.44;;;13.61;100.00
56420;BME280;42323;52.170;7.538;2023-08-07T04:32:40;100580.19;;;13.87;100.00
56420;BME280;42323;52.170;7.538;2023-08-07T04:35:07;100572.91;;;13.83;100.00
56420;BME280;42323;52.170;7.538;2023-08-07T04:37:34;100586.28;;;13.88;100.00
56420;BME280;42323;52.170;7.538;2023-08-07T04:40:20;100587.88;;;13.82;100.00
56420;BME280;42323;52.170;7.538;2023-08-07T04:42:48;100575.50;;;13.76;100.00
56420;BME280;42323;52.170;7.538;2023-08-07T04:45:15;100586.66;;;13.85;100.00
56420;BME280;42323;52.170;7.538;2023-08-07T04:47:42;100562.91;;;13.65;100.00
56420;BME280;42323;52.170;7.538;2023-08-07T04:50:08;100565.75;;;13.70;100.00
56420;BME280;42323;52.170;7.538;2023-08-07T04:52:36;100565.75;;;13.70;100.00
56420;BME280;42323;52.170;7.538;2023-08-07T04:55:02;100589.94;;;13.93;100.00
56420;BME280;42323;52.170;7.538;2023-08-07T04:57:29;100592.97;;;13.97;100.00
56420;BME280;42323;52.170;7.538;2023-08-07T04:59:55;100597.22;;;13.98;100.00
56420;BME280;42323;52.170;7.538;2023-08-07T05:02:22;100597.22;;;13.98;100.00
56420;BME280;42323;52.170;7.538;2023-08-07T05:04:49;100583.84;;;13.86;100.00
56420;BME280;42323;52.170;7.538;2023-08-07T05:07:15;100580.97;;;13.81;100.00
56420;BME280;42323;52.170;7.538;2023-08-07T05:14:00;100602.09;;;13.94;100.00
56420;BME280;42323;52.170;7.538;2023-08-07T05:16:27;100614.66;;;13.92;100.00
56420;BME280;42323;52.170;7.538;2023-08-07T05:18:53;100615.84;;;13.90;100.00
56420;BME280;42323;52.170;7.538;2023-08-07T05:21:20;100604.03;;;13.72;100.00
56420;BME280;42323;52.170;7.538;2023-08-07T05:23:47;100604.03;;;13.72;100.00
56420;BME280;42323;52.170;7.538;2023-08-07T05:26:14;100612.03;;;13.92;100.00
56420;BME280;42323;52.170;7.538;2023-08-07T05:28:42;100615.88;;;13.96;100.00
56420;BME280;42323;52.170;7.538;2023-08-07T05:31:09;100610.63;;;13.96;100.00
56420;BME280;42323;52.170;7.538;2023-08-07T05:33:35;100615.88;;;13.96;100.00
56420;BME280;42323;52.170;7.538;2023-08-07T05:36:02;100609.97;;;13.94;100.00
56420;BME280;42323;52.170;7.538;2023-08-07T05:38:28;100614.88;;;13.91;100.00
56420;BME280;42323;52.170;7.538;2023-08-07T05:40:55;100615.66;;;13.98;100.00
56420;BME280;42323;52.170;7.538;2023-08-07T05:43:21;100616.50;;;14.05;100.00
56420;BME280;42323;52.170;7.538;2023-08-07T05:45:48;100580.59;;;13.84;100.00
56420;BME280;42323;52.170;7.538;2023-08-07T05:48:15;100635.19;;;14.23;100.00
56420;BME280;42323;52.170;7.538;2023-08-07T05:51:19;100636.84;;;14.31;100.00
56420;BME280;42323;52.170;7.538;2023-08-07T05:53:46;100611.47;;;14.17;100.00
56420;BME280;42323;52.170;7.538;2023-08-07T05:56:12;100628.53;;;14.41;100.00
56420;BME280;42323;52.170;7.538;2023-08-07T05:58:39;100634.00;;;14.39;100.00
56420;BME280;42323;52.170;7.538;2023-08-07T06:01:12;100595.03;;;14.15;100.00
56420;BME280;42323;52.170;7.538;2023-08-07T06:03:39;100536.81;;;13.90;100.00
56420;BME280;42323;52.170;7.538;2023-08-07T06:06:05;100593.66;;;14.25;100.00
56420;BME280;42323;52.170;7.538;2023-08-07T06:08:32;100617.38;;;14.39;100.00
56420;BME280;42323;52.170;7.538;2023-08-07T06:11:36;100641.97;;;14.52;100.00
56420;BME280;42323;52.170;7.538;2023-08-07T06:14:03;100625.53;;;14.50;100.00
56420;BME280;42323;52.170;7.538;2023-08-07T06:16:30;100620.22;;;14.44;100.00
56420;BME280;42323;52.170;7.538;2023-08-07T06:18:59;100640.78;;;14.55;100.00
56420;BME280;42323;52.170;7.538;2023-08-07T06:21:26;100646.63;;;14.57;100.00
56420;BME280;42323;52.170;7.538;2023-08-07T06:23:54;100624.72;;;14.57;100.00
56420;BME280;42323;52.170;7.538;2023-08-07T06:26:21;100641.97;;;14.59;100.00
56420;BME280;42323;52.170;7.538;2023-08-07T06:28:48;100641.38;;;14.57;100.00
56420;BME280;42323;52.170;7.538;2023-08-07T06:31:16;100634.25;;;14.58;100.00
56420;BME280;42323;52.170;7.538;2023-08-07T06:33:42;100643.78;;;14.72;100.00
56420;BME280;42323;52.170;7.538;2023-08-07T06:36:09;100668.78;;;14.83;100.00
56420;BME280;42323;52.170;7.538;2023-08-07T06:38:36;100646.03;;;14.75;100.00
56420;BME280;42323;52.170;7.538;2023-08-07T06:41:03;100650.69;;;14.66;100.00
56420;BME280;42323;52.170;7.538;2023-08-07T06:43:29;100635.84;;;14.45;100.00
56420;BME280;42323;52.170;7.538;2023-08-07T06:45:56;100687.97;;;14.43;100.00
56420;BME280;42323;52.170;7.538;2023-08-07T06:48:23;100660.94;;;14.21;100.00
56420;BME280;42323;52.170;7.538;2023-08-07T06:50:50;100683.66;;;14.29;100.00
56420;BME280;42323;52.170;7.538;2023-08-07T06:53:18;100691.59;;;14.36;100.00
56420;BME280;42323;52.170;7.538;2023-08-07T06:55:45;100692.59;;;14.41;100.00
56420;BME280;42323;52.170;7.538;2023-08-07T06:58:12;100674.38;;;14.40;100.00
56420;BME280;42323;52.170;7.538;2023-08-07T07:00:38;100702.63;;;14.52;100.00
56420;BME280;42323;52.170;7.538;2023-08-07T07:03:05;100688.81;;;14.57;100.00
56420;BME280;42323;52.170;7.538;2023-08-07T07:05:33;100642.09;;;14.38;100.00
56420;BME280;42323;52.170;7.538;2023-08-07T07:08:00;100662.25;;;14.59;100.00
56420;BME280;42323;52.170;7.538;2023-08-07T07:10:27;100692.09;;;14.92;100.00
56420;BME280;42323;52.170;7.538;2023-08-07T07:12:53;100675.69;;;14.77;100.00
56420;BME280;42323;52.170;7.538;2023-08-07T07:15:20;100694.34;;;14.95;100.00
56420;BME280;42323;52.170;7.538;2023-08-07T07:17:46;100671.00;;;14.92;100.00
56420;BME280;42323;52.170;7.538;2023-08-07T07:20:13;100661.47;;;14.91;100.00
56420;BME280;42323;52.170;7.538;2023-08-07T07:22:39;100694.31;;;15.28;100.00
56420;BME280;42323;52.170;7.538;2023-08-07T07:25:06;100703.22;;;15.41;100.00
56420;BME280;42323;52.170;7.538;2023-08-07T07:27:33;100693.47;;;15.41;99.72
56420;BME280;42323;52.170;7.538;2023-08-07T07:30:00;100699.16;;;15.45;98.29
56420;BME280;42323;52.170;7.538;2023-08-07T07:32:26;100673.22;;;15.22;100.00
56420;BME280;42323;52.170;7.538;2023-08-07T07:34:53;100638.31;;;14.80;100.00
56420;BME280;42323;52.170;7.538;2023-08-07T07:37:19;100637.31;;;14.61;100.00
56420;BME280;42323;52.170;7.538;2023-08-07T07:39:49;100671.19;;;14.64;100.00
56420;BME280;42323;52.170;7.538;2023-08-07T07:42:16;100734.91;;;14.88;100.00
56420;BME280;42323;52.170;7.538;2023-08-07T07:44:42;100724.34;;;14.68;100.00
56420;BME280;42323;52.170;7.538;2023-08-07T07:47:09;100729.00;;;14.66;100.00
56420;BME280;42323;52.170;7.538;2023-08-07T07:49:39;100721.69;;;14.68;100.00
56420;BME280;42323;52.170;7.538;2023-08-07T07:52:06;100738.19;;;14.90;100.00
56420;BME280;42323;52.170;7.538;2023-08-07T07:54:35;100732.91;;;14.96;100.00
56420;BME280;42323;52.170;7.538;2023-08-07T07:57:01;100725.97;;;14.89;100.00
56420;BME280;42323;52.170;7.538;2023-08-07T07:59:28;100726.59;;;14.77;100.00
56420;BME280;42323;52.170;7.538;2023-08-07T08:01:54;100726.97;;;14.61;100.00
56420;BME280;42323;52.170;7.538;2023-08-07T08:04:21;100741.97;;;14.67;100.00
56420;BME280;42323;52.170;7.538;2023-08-07T08:06:48;100769.44;;;14.99;100.00
56420;BME280;42323;52.170;7.538;2023-08-07T08:09:15;100754.00;;;15.10;100.00
56420;BME280;42323;52.170;7.538;2023-08-07T08:11:42;100768.44;;;15.27;100.00
56420;BME280;42323;52.170;7.538;2023-08-07T08:14:08;100713.22;;;14.99;100.00
56420;BME280;42323;52.170;7.538;2023-08-07T08:16:35;100739.75;;;15.57;97.10
56420;BME280;42323;52.170;7.538;2023-08-07T08:19:03;100766.34;;;15.95;98.30
56420;BME280;42323;52.170;7.538;2023-08-07T08:21:30;100766.97;;;15.84;97.90
56420;BME280;42323;52.170;7.538;2023-08-07T08:23:57;100785.06;;;15.61;99.12
56420;BME280;42323;52.170;7.538;2023-08-07T08:26:24;100796.06;;;15.31;100.00
56420;BME280;42323;52.170;7.538;2023-08-07T08:28:51;100785.22;;;14.79;100.00
56420;BME280;42323;52.170;7.538;2023-08-07T08:31:17;100805.69;;;14.64;100.00
56420;BME280;42323;52.170;7.538;2023-08-07T08:33:44;100794.69;;;14.54;100.00
56420;BME280;42323;52.170;7.538;2023-08-07T08:36:10;100783.19;;;14.68;100.00
56420;BME280;42323;52.170;7.538;2023-08-07T08:38:37;100781.53;;;14.67;100.00
56420;BME280;42323;52.170;7.538;2023-08-07T08:41:06;100799.22;;;14.73;100.00
56420;BME280;42323;52.170;7.538;2023-08-07T08:43:35;100800.84;;;14.74;100.00
56420;BME280;42323;52.170;7.538;2023-08-07T08:46:05;100809.56;;;14.75;100.00
56420;BME280;42323;52.170;7.538;2023-08-07T08:48:35;100793.91;;;14.67;100.00
56420;BME280;42323;52.170;7.538;2023-08-07T08:51:03;100818.31;;;14.82;99.94
56420;BME280;42323;52.170;7.538;2023-08-07T08:53:31;100832.81;;;15.13;100.00
56420;BME280;42323;52.170;7.538;2023-08-07T08:56:00;100826.13;;;15.43;100.00
56420;BME280;42323;52.170;7.538;2023-08-07T08:58:28;100825.31;;;15.56;98.27
56420;BME280;42323;52.170;7.538;2023-08-07T09:00:55;100821.47;;;15.72;96.59
56420;BME280;42323;52.170;7.538;2023-08-07T09:03:23;100805.97;;;15.95;95.29
56420;BME280;42323;52.170;7.538;2023-08-07T09:05:58;100831.13;;;16.18;93.78
56420;BME280;42323;52.170;7.538;2023-08-07T09:08:27;100823.38;;;16.23;91.94
56420;BME280;42323;52.170;7.538;2023-08-07T09:10:56;100828.94;;;16.08;88.89
56420;BME280;42323;52.170;7.538;2023-08-07T09:13:23;100818.94;;;16.17;89.22
56420;BME280;42323;52.170;7.538;2023-08-07T09:18:35;100737.91;;;15.84;86.74
56420;BME280;42323;52.170;7.538;2023-08-07T09:21:05;100725.53;;;15.78;84.91
56420;BME280;42323;52.170;7.538;2023-08-07T09:23:34;100814.22;;;16.25;84.66
56420;BME280;42323;52.170;7.538;2023-08-07T09:26:02;100837.06;;;16.65;81.79
56420;BME280;42323;52.170;7.538;2023-08-07T09:28:32;100847.88;;;16.56;83.42
56420;BME280;42323;52.170;7.538;2023-08-07T09:30:59;100832.38;;;16.15;83.23
56420;BME280;42323;52.170;7.538;2023-08-07T09:33:29;100856.56;;;16.05;85.72
56420;BME280;42323;52.170;7.538;2023-08-07T09:35:58;100820.41;;;15.99;85.98
56420;BME280;42323;52.170;7.538;2023-08-07T09:38:29;100855.50;;;16.33;81.93
56420;BME280;42323;52.170;7.538;2023-08-07T09:41:00;100850.41;;;16.38;81.55
56420;BME280;42323;52.170;7.538;2023-08-07T09:43:28;100850.16;;;16.46;80.89
56420;BME280;42323;52.170;7.538;2023-08-07T09:48:30;100872.09;;;16.60;80.58
56420;BME280;42323;52.170;7.538;2023-08-07T09:51:01;100857.38;;;16.77;76.82
56420;BME280;42323;52.170;7.538;2023-08-07T09:53:30;100859.69;;;17.05;74.41
56420;BME280;42323;52.170;7.538;2023-08-07T09:55:58;100870.56;;;17.22;74.75
56420;BME280;42323;52.170;7.538;2023-08-07T09:58:24;100859.41;;;17.45;73.03
56420;BME280;42323;52.170;7.538;2023-08-07T10:00:52;100848.06;;;17.63;70.66
56420;BME280;42323;52.170;7.538;2023-08-07T10:03:26;100873.53;;;18.14;67.83
56420;BME280;42323;52.170;7.538;2023-08-07T10:05:53;100879.88;;;17.63;70.17
56420;BME280;42323;52.170;7.538;2023-08-07T10:08:21;100900.06;;;16.94;73.58
56420;BME280;42323;52.170;7.538;2023-08-07T10:10:47;100925.00;;;16.53;72.71
56420;BME280;42323;52.170;7.538;2023-08-07T10:13:14;100877.56;;;15.80;72.47
56420;BME280;42323;52.170;7.538;2023-08-07T10:15:46;100883.66;;;15.74;76.61
56420;BME280;42323;52.170;7.538;2023-08-07T10:18:15;100908.44;;;15.73;77.36
56420;BME280;42323;52.170;7.538;2023-08-07T10:20:42;100908.44;;;15.73;77.36
56420;BME280;42323;52.170;7.538;2023-08-07T10:23:11;100919.63;;;16.02;78.65
56420;BME280;42323;52.170;7.538;2023-08-07T10:25:41;100940.09;;;16.46;76.18
56420;BME280;42323;52.170;7.538;2023-08-07T10:28:12;100917.34;;;17.92;71.21
56420;BME280;42323;52.170;7.538;2023-08-07T10:30:41;100929.13;;;18.02;70.97
56420;BME280;42323;52.170;7.538;2023-08-07T10:33:10;100926.41;;;17.52;72.30
56420;BME280;42323;52.170;7.538;2023-08-07T10:35:44;100935.53;;;17.63;71.24
56420;BME280;42323;52.170;7.538;2023-08-07T10:38:11;100906.31;;;17.07;71.02
56420;BME280;42323;52.170;7.538;2023-08-07T10:41:12;100944.13;;;16.75;72.09
56420;BME280;42323;52.170;7.538;2023-08-07T10:43:40;100929.53;;;16.46;73.12
56420;BME280;42323;52.170;7.538;2023-08-07T10:46:19;100930.63;;;16.90;71.94
56420;BME280;42323;52.170;7.538;2023-08-07T10:48:54;100934.16;;;16.58;72.34
56420;BME280;42323;52.170;7.538;2023-08-07T10:51:29;100934.16;;;16.58;72.34
56420;BME280;42323;52.170;7.538;2023-08-07T10:54:01;100929.13;;;16.49;72.06
56420;BME280;42323;52.170;7.538;2023-08-07T10:56:33;100920.88;;;17.22;69.48
56420;BME280;42323;52.170;7.538;2023-08-07T10:59:09;100939.44;;;18.72;64.59
56420;BME280;42323;52.170;7.538;2023-08-07T11:01:41;100902.94;;;17.56;69.02
56420;BME280;42323;52.170;7.538;2023-08-07T11:06:36;100944.63;;;18.42;67.40
56420;BME280;42323;52.170;7.538;2023-08-07T11:09:05;100931.63;;;21.30;56.93
56420;BME280;42323;52.170;7.538;2023-08-07T11:11:46;100924.34;;;21.88;54.42
56420;BME280;42323;52.170;7.538;2023-08-07T11:14:17;100897.81;;;22.15;53.50
56420;BME280;42323;52.170;7.538;2023-08-07T11:16:45;100920.41;;;22.90;51.37
56420;BME280;42323;52.170;7.538;2023-08-07T11:19:16;63019.00;;;-145.28;100.00
56420;BME280;42323;52.170;7.538;2023-08-07T11:21:43;100914.84;;;22.97;47.77
56420;BME280;42323;52.170;7.538;2023-08-07T11:24:12;100931.53;;;23.09;46.43
56420;BME280;42323;52.170;7.538;2023-08-07T11:26:41;100914.00;;;21.13;48.40
56420;BME280;42323;52.170;7.538;2023-08-07T11:29:08;100917.31;;;20.16;50.53
56420;BME280;42323;52.170;7.538;2023-08-07T11:31:35;100941.59;;;19.84;51.26
56420;BME280;42323;52.170;7.538;2023-08-07T11:34:02;100933.00;;;19.28;53.77
56420;BME280;42323;52.170;7.538;2023-08-07T11:36:29;100930.84;;;19.07;53.39
56420;BME280;42323;52.170;7.538;2023-08-07T11:38:56;100930.84;;;19.07;53.39
56420;BME280;42323;52.170;7.538;2023-08-07T11:41:22;100941.41;;;18.95;54.85
56420;BME280;42323;52.170;7.538;2023-08-07T11:43:49;100941.41;;;18.95;54.85
56420;BME280;42323;52.170;7.538;2023-08-07T11:46:16;100949.56;;;19.72;54.15
56420;BME280;42323;52.170;7.538;2023-08-07T11:48:44;100962.91;;;19.96;52.09
56420;BME280;42323;52.170;7.538;2023-08-07T11:51:16;100962.09;;;20.54;51.15
56420;BME280;42323;52.170;7.538;2023-08-07T11:53:42;100953.78;;;20.03;51.22
56420;BME280;42323;52.170;7.538;2023-08-07T11:56:11;100974.59;;;20.07;53.05
56420;BME280;42323;52.170;7.538;2023-08-07T11:58:39;100979.41;;;19.44;53.80
56420;BME280;42323;52.170;7.538;2023-08-07T12:01:09;100943.72;;;18.92;55.58
56420;BME280;42323;52.170;7.538;2023-08-07T12:03:37;100951.53;;;19.05;56.44
56420;BME280;42323;52.170;7.538;2023-08-07T12:06:06;100953.31;;;20.65;51.85
56420;BME280;42323;52.170;7.538;2023-08-07T12:08:41;100977.72;;;20.74;52.09
56420;BME280;42323;52.170;7.538;2023-08-07T12:11:09;100945.53;;;20.64;50.45
56420;BME280;42323;52.170;7.538;2023-08-07T12:13:37;100947.78;;;20.95;50.05
56420;BME280;42323;52.170;7.538;2023-08-07T12:16:07;100956.75;;;21.80;47.76
56420;BME280;42323;52.170;7.538;2023-08-07T12:18:35;100968.81;;;21.37;50.40
56420;BME280;42323;52.170;7.538;2023-08-07T12:21:06;100977.13;;;20.37;50.71
56420;BME280;42323;52.170;7.538;2023-08-07T12:23:34;100989.53;;;19.36;53.59
56420;BME280;42323;52.170;7.538;2023-08-07T12:26:01;100970.97;;;18.44;56.21
56420;BME280;42323;52.170;7.538;2023-08-07T12:28:28;100970.97;;;18.44;56.21
56420;BME280;42323;52.170;7.538;2023-08-07T12:30:54;100979.88;;;17.43;61.04
56420;BME280;42323;52.170;7.538;2023-08-07T12:33:23;100990.75;;;17.28;61.08
56420;BME280;42323;52.170;7.538;2023-08-07T12:35:49;101009.06;;;17.74;57.65
56420;BME280;42323;52.170;7.538;2023-08-07T12:38:16;101011.25;;;18.34;57.02
56420;BME280;42323;52.170;7.538;2023-08-07T12:40:43;100992.25;;;18.80;55.87
56420;BME280;42323;52.170;7.538;2023-08-07T12:43:10;100984.13;;;19.61;54.03
56420;BME280;42323;52.170;7.538;2023-08-07T12:45:37;101004.81;;;20.36;50.29
56420;BME280;42323;52.170;7.538;2023-08-07T12:48:07;101017.78;;;20.44;48.87
56420;BME280;42323;52.170;7.538;2023-08-07T12:50:34;100972.31;;;21.38;47.00
56420;BME280;42323;52.170;7.538;2023-08-07T12:53:01;100966.91;;;21.21;47.50
56420;BME280;42323;52.170;7.538;2023-08-07T12:55:28;101011.22;;;22.13;44.25
56420;BME280;42323;52.170;7.538;2023-08-07T12:57:56;101007.63;;;22.41;43.98
56420;BME280;42323;52.170;7.538;2023-08-07T13:00:23;100997.88;;;21.50;45.67
56420;BME280;42323;52.170;7.538;2023-08-07T13:02:50;101014.69;;;21.11;47.20